createdAt,value
2024-01-20T00:00:00.415Z,98170.53
2024-01-20T00:02:27.078Z,98172.13
2024-01-20T00:04:54.537Z,98175.44
2024-01-20T00:07:21.356Z,98175.41
2024-01-20T00:09:51.336Z,98177.22
2024-01-20T00:12:19.459Z,98176.25
2024-01-20T00:14:46.263Z,98173.69
2024-01-20T00:17:21.205Z,98175.34
2024-01-20T00:19:54.282Z,98176.16
2024-01-20T00:22:22.104Z,98176.16
2024-01-20T00:24:49.334Z,98182.13
2024-01-20T00:27:16.429Z,98182.13
2024-01-20T00:29:43.049Z,98183.03
2024-01-20T00:32:10.128Z,98196.59
2024-01-20T00:34:50.657Z,98195.59
2024-01-20T00:37:24.069Z,98204.91
2024-01-20T00:39:50.681Z,98200.56
2024-01-20T00:42:17.194Z,98198.06
2024-01-20T00:44:43.817Z,98200.63
2024-01-20T00:47:10.550Z,98204.81
2024-01-20T00:49:37.348Z,98203.00
2024-01-20T00:52:04.243Z,98207.28
2024-01-20T00:54:30.806Z,98208.25
2024-01-20T00:56:57.401Z,98203.16
2024-01-20T00:59:24.005Z,98193.94
2024-01-20T01:01:50.718Z,98197.31
2024-01-20T01:04:17.556Z,98192.84
2024-01-20T01:06:44.251Z,98193.56
2024-01-20T01:09:11.240Z,98193.31
2024-01-20T01:11:38.067Z,98204.28
2024-01-20T01:14:04.750Z,98200.84
2024-01-20T01:16:31.390Z,98200.94
2024-01-20T01:18:58.013Z,98201.78
2024-01-20T01:21:25.010Z,98206.84
2024-01-20T01:23:51.567Z,98203.25
2024-01-20T01:26:18.804Z,98204.91
2024-01-20T01:28:45.698Z,98210.91
2024-01-20T01:31:12.580Z,98208.28
2024-01-20T01:33:39.285Z,98208.22
2024-01-20T01:36:06.426Z,98217.44
2024-01-20T01:38:33.125Z,98216.69
2024-01-20T01:41:00.161Z,98217.50
2024-01-20T01:43:26.872Z,98214.78
2024-01-20T01:45:53.630Z,98216.53
2024-01-20T01:48:21.099Z,98228.31
2024-01-20T01:50:50.086Z,98231.75
2024-01-20T01:53:16.838Z,98222.19
2024-01-20T01:55:47.369Z,98220.56
2024-01-20T01:58:14.935Z,98212.66
2024-01-20T02:00:42.307Z,98223.94
2024-01-20T02:03:10.777Z,98215.97
2024-01-20T02:05:37.648Z,98211.59
2024-01-20T02:08:05.226Z,98216.63
2024-01-20T02:10:32.685Z,98216.53
2024-01-20T02:13:00.925Z,98219.91
2024-01-20T02:15:28.564Z,98218.97
2024-01-20T02:17:56.459Z,98220.75
2024-01-20T02:20:25.129Z,98216.38
2024-01-20T02:22:52.436Z,98229.19
2024-01-20T02:25:19.235Z,98226.63
2024-01-20T02:27:45.876Z,98236.88
2024-01-20T02:30:12.857Z,98231.69
2024-01-20T02:32:39.654Z,98235.03
2024-01-20T02:35:06.759Z,98241.94
2024-01-20T02:37:33.347Z,98247.19
2024-01-20T02:39:59.994Z,98240.13
2024-01-20T02:42:26.836Z,98248.53
2024-01-20T02:44:53.585Z,98254.34
2024-01-20T02:47:20.709Z,98253.47
2024-01-20T02:49:47.411Z,98267.97
2024-01-20T02:52:14.267Z,98277.19
2024-01-20T02:54:40.849Z,98267.00
2024-01-20T02:57:07.486Z,98265.97
2024-01-20T02:59:34.215Z,98265.91
2024-01-20T03:02:03.382Z,98269.38
2024-01-20T03:04:30.216Z,98268.50
2024-01-20T03:06:56.881Z,98270.94
2024-01-20T03:09:23.637Z,98282.03
2024-01-20T03:11:50.312Z,98290.56
2024-01-20T03:14:16.951Z,98295.56
2024-01-20T03:16:43.508Z,98302.22
2024-01-20T03:19:10.154Z,98303.84
2024-01-20T03:21:36.793Z,98308.88
2024-01-20T03:24:03.654Z,98298.66
2024-01-20T03:26:30.280Z,98305.50
2024-01-20T03:28:56.852Z,98306.31
2024-01-20T03:31:23.558Z,98297.81
2024-01-20T03:33:50.152Z,98289.34
2024-01-20T03:36:16.818Z,98285.75
2024-01-20T03:38:43.367Z,98278.84
2024-01-20T03:41:09.794Z,98282.28
2024-01-20T03:43:36.389Z,98278.84
2024-01-20T03:46:02.903Z,98275.31
2024-01-20T03:48:30.201Z,98283.03
2024-01-20T03:50:56.822Z,98281.16
2024-01-20T03:53:23.289Z,98282.72
2024-01-20T03:55:49.701Z,98280.84
2024-01-20T03:58:16.209Z,98280.91
2024-01-20T04:00:44.455Z,98282.34
2024-01-20T04:03:11.078Z,98284.81
2024-01-20T04:05:38.298Z,98283.84
2024-01-20T04:08:04.791Z,98281.16
2024-01-20T04:10:31.225Z,98283.69
2024-01-20T04:12:57.683Z,98293.00
2024-01-20T04:15:24.259Z,98299.13
2024-01-20T04:17:51.197Z,98307.56
2024-01-20T04:20:17.686Z,98304.91
2024-01-20T04:22:44.106Z,98297.22
2024-01-20T04:25:11.150Z,98303.97
2024-01-20T04:27:41.855Z,98307.28
2024-01-20T04:30:09.454Z,98303.94
2024-01-20T04:32:36.269Z,98308.13
2024-01-20T04:35:03.375Z,98320.81
2024-01-20T04:37:29.783Z,98319.94
2024-01-20T04:39:57.443Z,98320.00
2024-01-20T04:42:23.909Z,98324.28
2024-01-20T04:44:50.365Z,98325.25
2024-01-20T04:47:16.779Z,98319.22
2024-01-20T04:49:43.253Z,98326.06
2024-01-20T04:52:09.722Z,98331.88
2024-01-20T04:54:36.247Z,98334.28
2024-01-20T04:57:02.851Z,98341.81
2024-01-20T04:59:29.340Z,98338.34
2024-01-20T05:01:55.790Z,98342.75
2024-01-20T05:04:22.291Z,98346.91
2024-01-20T05:06:49.803Z,98349.19
2024-01-20T05:09:16.647Z,98354.19
2024-01-20T05:11:43.111Z,98365.19
2024-01-20T05:14:09.622Z,98371.13
2024-01-20T05:16:36.051Z,98384.81
2024-01-20T05:19:03.002Z,98394.06
2024-01-20T05:21:29.664Z,98382.91
2024-01-20T05:23:58.090Z,98386.09
2024-01-20T05:26:25.045Z,98380.13
2024-01-20T05:28:51.727Z,98382.59
2024-01-20T05:31:18.268Z,98386.09
2024-01-20T05:33:44.887Z,98390.41
2024-01-20T05:36:11.968Z,98397.09
2024-01-20T05:38:38.443Z,98402.00
2024-01-20T05:41:04.951Z,98403.69
2024-01-20T05:43:31.404Z,98406.13
2024-01-20T05:45:57.873Z,98405.09
2024-01-20T05:48:24.395Z,98408.34
2024-01-20T05:50:50.833Z,98415.00
2024-01-20T05:53:19.348Z,98418.81
2024-01-20T05:55:45.835Z,98416.81
2024-01-20T05:58:12.285Z,98422.66
2024-01-20T06:00:39.005Z,98424.88
2024-01-20T06:03:05.662Z,98427.28
2024-01-20T06:05:32.140Z,98425.63
2024-01-20T06:07:58.582Z,98428.94
2024-01-20T06:10:25.141Z,98426.25
2024-01-20T06:12:51.665Z,98433.13
2024-01-20T06:15:18.113Z,98436.47
2024-01-20T06:17:44.671Z,98436.59
2024-01-20T06:20:11.271Z,98432.97
2024-01-20T06:22:40.324Z,98437.94
2024-01-20T06:25:07.046Z,98429.16
2024-01-20T06:27:34.015Z,98431.75
2024-01-20T06:30:00.700Z,98441.72
2024-01-20T06:32:27.146Z,98441.72
2024-01-20T06:34:53.645Z,98442.47
2024-01-20T06:37:20.107Z,98444.34
2024-01-20T06:39:47.424Z,98456.19
2024-01-20T06:42:14.767Z,98455.28
2024-01-20T06:44:41.315Z,98455.63
2024-01-20T06:47:10.585Z,98453.03
2024-01-20T06:49:40.899Z,98455.72
2024-01-20T06:52:07.591Z,98455.63
2024-01-20T06:54:34.237Z,98453.03
2024-01-20T06:57:00.766Z,98448.72
2024-01-20T06:59:27.224Z,98446.22
2024-01-20T07:01:53.641Z,98449.63
2024-01-20T07:04:20.108Z,98454.16
2024-01-20T07:06:46.719Z,98450.66
2024-01-20T07:09:13.179Z,98450.72
2024-01-20T07:11:39.731Z,98452.31
2024-01-20T07:14:06.301Z,98446.47
2024-01-20T07:16:32.777Z,98460.06
2024-01-20T07:18:59.326Z,98450.91
2024-01-20T07:21:25.868Z,98449.38
2024-01-20T07:23:52.380Z,98453.66
2024-01-20T07:26:18.818Z,98453.84
2024-01-20T07:28:45.271Z,98464.31
2024-01-20T07:31:12.654Z,98459.59
2024-01-20T07:33:40.208Z,98463.34
2024-01-20T07:36:06.997Z,98469.97
2024-01-20T07:38:33.463Z,98473.31
2024-01-20T07:41:00.877Z,98482.63
2024-01-20T07:43:27.295Z,98479.31
2024-01-20T07:45:55.419Z,98488.53
2024-01-20T07:48:22.276Z,98488.25
2024-01-20T07:50:49.581Z,98485.22
2024-01-20T07:53:16.056Z,98502.13
2024-01-20T07:55:42.929Z,98501.06
2024-01-20T07:58:09.334Z,98515.88
2024-01-20T08:00:35.933Z,98521.59
2024-01-20T08:03:02.777Z,98519.59
2024-01-20T08:05:31.940Z,98517.09
2024-01-20T08:07:58.548Z,98523.09
2024-01-20T08:10:24.989Z,98525.91
2024-01-20T08:12:52.465Z,98525.69
2024-01-20T08:15:18.911Z,98529.97
2024-01-20T08:17:45.348Z,98532.28
2024-01-20T08:20:12.009Z,98531.66
2024-01-20T08:22:38.650Z,98536.53
2024-01-20T08:25:06.160Z,98544.19
2024-01-20T08:27:32.963Z,98545.59
2024-01-20T08:29:59.739Z,98544.38
2024-01-20T08:32:26.380Z,98547.13
2024-01-20T08:34:52.934Z,98545.03
2024-01-20T08:37:19.453Z,98547.06
2024-01-20T08:39:45.990Z,98550.69
2024-01-20T08:42:12.513Z,98549.09
2024-01-20T08:44:39.044Z,98556.19
2024-01-20T08:47:05.599Z,98553.69
2024-01-20T08:49:32.131Z,98555.59
2024-01-20T08:51:58.690Z,98565.19
2024-01-20T08:54:25.253Z,98558.38
2024-01-20T08:56:51.857Z,98559.25
2024-01-20T08:59:20.542Z,98551.47
2024-01-20T09:01:47.085Z,98552.31
2024-01-20T09:04:14.817Z,98552.25
2024-01-20T09:06:41.447Z,98548.84
2024-01-20T09:09:08.166Z,98553.94
2024-01-20T09:11:34.804Z,98568.53
2024-01-20T09:14:01.463Z,98572.66
2024-01-20T09:16:27.990Z,98577.69
2024-01-20T09:18:54.692Z,98574.72
2024-01-20T09:21:21.438Z,98584.09
2024-01-20T09:23:48.052Z,98577.84
2024-01-20T09:26:14.602Z,98589.66
2024-01-20T09:28:41.148Z,98586.78
2024-01-20T09:31:07.707Z,98587.13
2024-01-20T09:33:34.543Z,98584.09
2024-01-20T09:36:03.908Z,98591.56
2024-01-20T09:38:30.839Z,98587.84
2024-01-20T09:40:58.668Z,98579.75
2024-01-20T09:43:26.415Z,98575.19
2024-01-20T09:45:53.775Z,98577.47
2024-01-20T09:48:20.819Z,98569.59
2024-01-20T09:50:48.814Z,98570.38
2024-01-20T09:53:17.874Z,98565.84
2024-01-20T09:55:46.739Z,98565.16
2024-01-20T09:58:16.881Z,98568.19
2024-01-20T10:00:44.432Z,98566.94
2024-01-20T10:03:13.322Z,98558.97
2024-01-20T10:05:40.174Z,98565.28
2024-01-20T10:08:07.500Z,98561.47
2024-01-20T10:10:34.809Z,98555.72
2024-01-20T10:13:04.551Z,98552.56
2024-01-20T10:15:34.452Z,98561.22
2024-01-20T10:18:07.789Z,98561.22
2024-01-20T10:20:37.827Z,98566.78
2024-01-20T10:23:06.669Z,98567.31
2024-01-20T10:25:33.527Z,98556.38
2024-01-20T10:28:00.638Z,98553.25
2024-01-20T10:30:27.779Z,98552.38
2024-01-20T10:33:04.456Z,98553.44
2024-01-20T10:35:36.904Z,98543.41
2024-01-20T10:38:10.083Z,98546.19
2024-01-20T10:40:40.766Z,98539.69
2024-01-20T10:43:15.047Z,98535.03
2024-01-20T10:45:58.236Z,98537.59
2024-01-20T10:48:37.371Z,98536.69
2024-01-20T10:51:12.706Z,98533.84
2024-01-20T10:53:40.620Z,98533.22
2024-01-20T10:56:09.044Z,98529.16
2024-01-20T10:58:42.458Z,98521.53
2024-01-20T11:01:11.263Z,98530.72
2024-01-20T11:03:38.473Z,98533.16
2024-01-20T11:06:05.414Z,98531.19
2024-01-20T11:08:32.500Z,98521.25
2024-01-20T11:11:00.264Z,98516.97
2024-01-20T11:13:27.881Z,98516.66
2024-01-20T11:15:56.611Z,98518.19
2024-01-20T11:18:24.643Z,98513.28
2024-01-20T11:21:02.680Z,98505.25
2024-01-20T11:23:30.246Z,98510.59
2024-01-20T11:25:58.769Z,98516.69
2024-01-20T11:28:32.353Z,98520.31
2024-01-20T11:30:59.605Z,98517.84
2024-01-20T11:33:26.430Z,98514.78
2024-01-20T11:35:53.765Z,98516.84
2024-01-20T11:38:21.383Z,98506.78
2024-01-20T11:41:01.411Z,98517.44
2024-01-20T11:43:28.528Z,98513.66
2024-01-20T11:45:56.884Z,98507.06
2024-01-20T11:48:24.117Z,98503.06
2024-01-20T11:50:51.525Z,98506.72
2024-01-20T11:53:21.411Z,98506.09
2024-01-20T11:55:55.477Z,98508.00
2024-01-20T11:58:22.908Z,98501.59
2024-01-20T12:00:52.764Z,98508.13
2024-01-20T12:03:20.088Z,98504.75
2024-01-20T12:05:46.970Z,98509.97
2024-01-20T12:08:15.052Z,98504.59
2024-01-20T12:10:46.337Z,98504.16
2024-01-20T12:13:17.442Z,98518.63
2024-01-20T12:15:46.612Z,98503.09
2024-01-20T12:18:13.304Z,98500.81
2024-01-20T12:20:41.226Z,98493.75
2024-01-20T12:23:07.863Z,98494.00
2024-01-20T12:25:35.235Z,98502.53
2024-01-20T12:28:02.781Z,98492.75
2024-01-20T12:30:32.111Z,98491.22
2024-01-20T12:32:58.914Z,98491.28
2024-01-20T12:35:26.496Z,98499.88
2024-01-20T12:37:53.114Z,98503.78
2024-01-20T12:40:20.122Z,98505.06
2024-01-20T12:42:46.774Z,98505.94
2024-01-20T12:45:13.490Z,98507.34
2024-01-20T12:47:40.375Z,98503.47
2024-01-20T12:50:07.661Z,98502.00
2024-01-20T12:52:34.841Z,98504.53
2024-01-20T12:55:01.518Z,98499.28
2024-01-20T12:57:28.153Z,98505.53
2024-01-20T12:59:54.810Z,98497.78
2024-01-20T13:02:21.537Z,98493.03
2024-01-20T13:04:48.229Z,98488.75
2024-01-20T13:07:15.495Z,98478.53
2024-01-20T13:09:42.708Z,98479.41
2024-01-20T13:12:09.756Z,98480.59
2024-01-20T13:14:36.731Z,98473.22
2024-01-20T13:17:03.960Z,98468.25
2024-01-20T13:19:31.109Z,98463.69
2024-01-20T13:21:58.434Z,98461.56
2024-01-20T13:24:25.246Z,98454.53
2024-01-20T13:26:51.806Z,98451.88
2024-01-20T13:29:18.551Z,98453.75
2024-01-20T13:31:45.281Z,98458.00
2024-01-20T13:34:12.052Z,98457.38
2024-01-20T13:36:38.818Z,98457.81
2024-01-20T13:39:08.934Z,98461.13
2024-01-20T13:41:35.868Z,98457.63
2024-01-20T13:44:03.498Z,98450.88
2024-01-20T13:46:30.017Z,98456.13
2024-01-20T13:48:56.900Z,98462.09
2024-01-20T13:51:23.886Z,98457.13
2024-01-20T13:53:50.526Z,98463.63
2024-01-20T13:56:17.248Z,98458.44
2024-01-20T13:58:43.800Z,98462.69
2024-01-20T14:01:10.499Z,98453.41
2024-01-20T14:03:37.299Z,98459.13
2024-01-20T14:06:05.043Z,98450.91
2024-01-20T14:08:31.728Z,98449.72
2024-01-20T14:10:58.343Z,98453.88
2024-01-20T14:13:24.876Z,98456.06
2024-01-20T14:15:51.611Z,98460.66
2024-01-20T14:18:18.416Z,98458.34
2024-01-20T14:20:45.083Z,98458.81
2024-01-20T14:23:11.605Z,98452.88
2024-01-20T14:25:38.113Z,98463.25
2024-01-20T14:28:05.237Z,98461.13
2024-01-20T14:30:32.274Z,98464.78
2024-01-20T14:32:59.002Z,98462.22
2024-01-20T14:35:27.035Z,98462.28
2024-01-20T14:37:54.538Z,98478.16
2024-01-20T14:40:21.422Z,98470.50
2024-01-20T14:42:48.202Z,98461.88
2024-01-20T14:45:15.326Z,98461.00
2024-01-20T14:47:42.000Z,98448.97
2024-01-20T14:50:09.307Z,98451.59
2024-01-20T14:52:35.951Z,98456.00
2024-01-20T14:55:03.520Z,98449.16
2024-01-20T14:57:30.221Z,98457.84
2024-01-20T14:59:56.785Z,98462.97
2024-01-20T15:02:23.405Z,98461.34
2024-01-20T15:04:50.062Z,98457.97
2024-01-20T15:07:16.627Z,98457.16
2024-01-20T15:09:43.220Z,98465.84
2024-01-20T15:12:10.225Z,98466.69
2024-01-20T15:14:36.875Z,98478.81
2024-01-20T15:17:03.505Z,98480.56
2024-01-20T15:19:30.676Z,98483.19
2024-01-20T15:21:57.351Z,98486.69
2024-01-20T15:24:24.216Z,98482.38
2024-01-20T15:26:50.812Z,98480.69
2024-01-20T15:29:17.362Z,98476.38
2024-01-20T15:31:43.885Z,98476.41
2024-01-20T15:34:11.277Z,98485.94
2024-01-20T15:36:38.098Z,98483.34
2024-01-20T15:39:04.962Z,98487.69
2024-01-20T15:41:31.628Z,98486.00
2024-01-20T15:43:58.216Z,98492.88
2024-01-20T15:46:24.811Z,98492.88
2024-01-20T15:48:51.453Z,98488.53
2024-01-20T15:51:18.138Z,98487.66
2024-01-20T15:53:46.040Z,98485.06
2024-01-20T15:56:14.826Z,98482.44
2024-01-20T15:58:41.794Z,98479.00
2024-01-20T16:01:08.505Z,98486.72
2024-01-20T16:03:35.242Z,98486.69
2024-01-20T16:06:02.040Z,98499.56
2024-01-20T16:08:28.701Z,98506.38
2024-01-20T16:10:55.275Z,98510.59
2024-01-20T16:13:21.863Z,98523.41
2024-01-20T16:15:48.592Z,98521.66
2024-01-20T16:18:15.632Z,98531.03
2024-01-20T16:20:42.257Z,98536.97
2024-01-20T16:23:08.800Z,98536.91
2024-01-20T16:25:36.030Z,98540.28
2024-01-20T16:28:02.620Z,98541.06
2024-01-20T16:30:29.216Z,98546.22
2024-01-20T16:32:55.832Z,98546.13
2024-01-20T16:35:22.353Z,98544.38
2024-01-20T16:37:48.952Z,98552.94
2024-01-20T16:40:15.575Z,98550.31
2024-01-20T16:42:42.277Z,98551.09
2024-01-20T16:45:09.479Z,98558.72
2024-01-20T16:47:36.125Z,98563.78
2024-01-20T16:50:03.796Z,98555.06
2024-01-20T16:52:30.761Z,98555.81
2024-01-20T16:54:57.369Z,98561.75
2024-01-20T16:57:40.396Z,98559.09
2024-01-20T17:00:09.918Z,98559.00
2024-01-20T17:02:36.601Z,98553.75
2024-01-20T17:05:03.387Z,98559.59
2024-01-20T17:07:29.992Z,98564.72
2024-01-20T17:09:56.471Z,98567.25
2024-01-20T17:12:24.550Z,98565.44
2024-01-20T17:14:51.134Z,98562.72
2024-01-20T17:17:17.690Z,98565.22
2024-01-20T17:19:44.769Z,98571.09
2024-01-20T17:22:11.327Z,98560.69
2024-01-20T17:24:38.696Z,98578.63
2024-01-20T17:27:05.692Z,98574.16
2024-01-20T17:29:33.221Z,98576.66
2024-01-20T17:32:04.151Z,98585.09
2024-01-20T17:34:32.940Z,98581.50
2024-01-20T17:37:00.971Z,98589.13
2024-01-20T17:39:29.127Z,98595.88
2024-01-20T17:41:58.679Z,98600.97
2024-01-20T17:44:25.353Z,98599.25
2024-01-20T17:46:51.964Z,98597.53
2024-01-20T17:49:18.583Z,98600.06
2024-01-20T17:51:45.477Z,98597.41
2024-01-20T17:54:12.402Z,98596.63
2024-01-20T17:56:39.527Z,98596.56
2024-01-20T17:59:06.152Z,98585.38
2024-01-20T18:01:33.064Z,98579.28
2024-01-20T18:03:59.840Z,98590.31
2024-01-20T18:06:27.294Z,98588.47
2024-01-20T18:08:54.279Z,98595.22
2024-01-20T18:11:20.796Z,98601.91
2024-01-20T18:13:47.327Z,98604.56
2024-01-20T18:16:13.935Z,98600.03
2024-01-20T18:18:40.610Z,98598.22
2024-01-20T18:21:07.599Z,98595.53
2024-01-20T18:23:34.232Z,98594.75
2024-01-20T18:26:00.895Z,98597.06
2024-01-20T18:28:28.046Z,98600.41
2024-01-20T18:30:55.281Z,98597.84
2024-01-20T18:33:22.464Z,98602.09
2024-01-20T18:35:49.146Z,98605.50
2024-01-20T18:38:16.759Z,98614.75
2024-01-20T18:40:43.310Z,98605.28
2024-01-20T18:43:10.201Z,98608.63
2024-01-20T18:45:36.774Z,98614.56
2024-01-20T18:48:03.727Z,98610.25
2024-01-20T18:50:30.450Z,98610.00
2024-01-20T18:52:57.769Z,98611.88
2024-01-20T18:55:24.375Z,98608.44
2024-01-20T18:57:51.004Z,98604.91
2024-01-20T19:00:17.729Z,98604.69
2024-01-20T19:02:44.462Z,98604.50
2024-01-20T19:05:11.158Z,98603.56
2024-01-20T19:07:37.753Z,98605.25
2024-01-20T19:10:09.861Z,98600.19
2024-01-20T19:12:43.764Z,98599.91
2024-01-20T19:15:10.795Z,98598.94
2024-01-20T19:17:37.462Z,98608.31
2024-01-20T19:20:06.004Z,98605.63
2024-01-20T19:22:33.038Z,98604.72
2024-01-20T19:24:59.805Z,98603.88
2024-01-20T19:27:27.385Z,98605.53
2024-01-20T19:29:54.066Z,98599.44
2024-01-20T19:32:20.686Z,98609.47
2024-01-20T19:34:47.519Z,98601.63
2024-01-20T19:37:14.192Z,98597.22
2024-01-20T19:39:40.835Z,98609.97
2024-01-20T19:42:07.425Z,98600.50
2024-01-20T19:44:34.063Z,98603.88
2024-01-20T19:47:00.671Z,98602.84
2024-01-20T19:49:27.347Z,98607.91
2024-01-20T19:51:54.014Z,98612.00
2024-01-20T19:54:20.609Z,98616.22
2024-01-20T19:56:47.182Z,98617.81
2024-01-20T19:59:16.763Z,98622.81
2024-01-20T20:01:47.357Z,98612.53
2024-01-20T20:04:18.938Z,98609.88
2024-01-20T20:06:50.102Z,98615.88
2024-01-20T20:09:18.197Z,98608.97
2024-01-20T20:11:45.180Z,98612.31
2024-01-20T20:14:13.320Z,98606.31
2024-01-20T20:16:41.174Z,98598.72
2024-01-20T20:19:08.345Z,98603.72
2024-01-20T20:21:35.063Z,98597.69
2024-01-20T20:24:01.657Z,98593.44
2024-01-20T20:26:28.659Z,98591.69
2024-01-20T20:28:55.212Z,98598.31
2024-01-20T20:31:23.546Z,98594.75
2024-01-20T20:33:50.410Z,98598.13
2024-01-20T20:36:20.112Z,98598.97
2024-01-20T20:38:47.068Z,98582.50
2024-01-20T20:41:13.587Z,98586.81
2024-01-20T20:43:40.152Z,98589.22
2024-01-20T20:46:06.801Z,98590.00
2024-01-20T20:48:33.459Z,98591.47
2024-01-20T20:50:59.985Z,98588.84
2024-01-20T20:53:26.550Z,98591.25
2024-01-20T20:55:53.097Z,98589.66
2024-01-20T20:58:19.654Z,98589.75
2024-01-20T21:00:46.318Z,98594.63
2024-01-20T21:03:13.734Z,98593.78
2024-01-20T21:05:40.780Z,98593.59
2024-01-20T21:08:07.428Z,98588.25
2024-01-20T21:10:34.082Z,98586.56
2024-01-20T21:13:00.817Z,98579.56
2024-01-20T21:15:27.684Z,98584.59
2024-01-20T21:17:54.492Z,98588.91
2024-01-20T21:20:21.410Z,98587.47
2024-01-20T21:22:48.091Z,98582.25
2024-01-20T21:25:14.968Z,98583.81
2024-01-20T21:27:41.667Z,98575.94
2024-01-20T21:30:08.977Z,98575.13
2024-01-20T21:32:35.775Z,98575.88
2024-01-20T21:35:02.872Z,98576.59
2024-01-20T21:37:29.515Z,98570.88
2024-01-20T21:39:56.035Z,98573.50
2024-01-20T21:42:22.692Z,98568.31
2024-01-20T21:44:49.433Z,98564.75
2024-01-20T21:47:15.999Z,98563.69
2024-01-20T21:49:42.602Z,98562.00
2024-01-20T21:52:09.154Z,98569.50
2024-01-20T21:54:35.896Z,98564.28
2024-01-20T21:57:02.523Z,98562.69
2024-01-20T21:59:29.166Z,98563.72
2024-01-20T22:01:55.696Z,98569.69
2024-01-20T22:04:22.441Z,98567.06
2024-01-20T22:06:51.134Z,98570.38
2024-01-20T22:09:18.112Z,98564.97
2024-01-20T22:11:44.781Z,98576.69
2024-01-20T22:14:11.325Z,98567.97
2024-01-20T22:16:37.852Z,98565.22
2024-01-20T22:19:04.491Z,98564.31
2024-01-20T22:21:31.243Z,98559.97
2024-01-20T22:23:58.036Z,98563.38
2024-01-20T22:26:24.613Z,98553.84
2024-01-20T22:28:53.972Z,98557.38
2024-01-20T22:31:21.324Z,98562.63
2024-01-20T22:33:49.412Z,98561.81
2024-01-20T22:36:16.062Z,98556.63
2024-01-20T22:38:42.824Z,98552.59
2024-01-20T22:41:09.380Z,98555.34
2024-01-20T22:43:35.922Z,98561.31
2024-01-20T22:46:02.479Z,98552.06
2024-01-20T22:48:33.351Z,98552.91
2024-01-20T22:51:00.027Z,98558.81
2024-01-20T22:53:31.613Z,98556.78
2024-01-20T22:55:58.180Z,98550.28
2024-01-20T22:58:24.857Z,98548.31
2024-01-20T23:00:51.426Z,98551.72
2024-01-20T23:03:18.123Z,98549.97
2024-01-20T23:05:45.701Z,98543.41
2024-01-20T23:08:15.782Z,98549.19
2024-01-20T23:10:42.323Z,98542.41
2024-01-20T23:13:08.852Z,98544.06
2024-01-20T23:15:35.399Z,98545.53
2024-01-20T23:18:01.997Z,98549.63
2024-01-20T23:20:28.623Z,98551.81
2024-01-20T23:22:55.637Z,98540.66
2024-01-20T23:25:22.292Z,98543.31
2024-01-20T23:27:49.036Z,98538.25
2024-01-20T23:30:15.783Z,98541.53
2024-01-20T23:32:42.565Z,98543.09
2024-01-20T23:35:09.520Z,98544.75
2024-01-20T23:37:36.103Z,98552.16
2024-01-20T23:40:03.143Z,98548.66
2024-01-20T23:42:30.413Z,98548.63
2024-01-20T23:44:57.717Z,98554.47
2024-01-20T23:47:24.319Z,98539.91
2024-01-20T23:49:50.906Z,98544.16
2024-01-20T23:52:17.421Z,98544.16
2024-01-20T23:54:44.125Z,98537.13
2024-01-20T23:57:10.998Z,98530.47
2024-01-20T23:59:37.587Z,98530.41
